Time;durP1;ratioP1;P1;durP2;ratioP2;P2;SDS_P1;SDS_P2;PMS_P1;PMS_P2;Temp;Humidity;BMP_temperature;BMP_pressure;BME280_temperature;BME280_humidity;BME280_pressure;Samples;Min_cycle;Max_cycle;Signal;HPM_P1;HPM_P2
2022/10/17 00:02:24;;;;;;;6.93;5.17;;;18.40;51.10;;;;;;5093125;28;20164;-42
2022/10/17 00:04:50;;;;;;;9.00;6.77;;;18.40;51.30;;;;;;5092973;28;20536;-43
2022/10/17 00:07:16;;;;;;;5.13;4.47;;;18.40;51.20;;;;;;5092110;28;20433;-42
2022/10/17 00:09:42;;;;;;;5.00;4.10;;;18.30;51.20;;;;;;5092696;28;20549;-42
2022/10/17 00:12:08;;;;;;;7.20;6.47;;;18.30;51.30;;;;;;5092714;28;20231;-42
2022/10/17 00:14:35;;;;;;;7.80;4.07;;;18.20;51.20;;;;;;5092555;28;20203;-43
2022/10/17 00:17:01;;;;;;;4.95;4.45;;;18.20;51.20;;;;;;5092145;28;20428;-42
2022/10/17 00:19:26;;;;;;;5.07;4.03;;;18.20;51.30;;;;;;5092563;28;20555;-43
2022/10/17 00:21:52;;;;;;;6.23;4.23;;;18.10;51.20;;;;;;5092487;28;20422;-43
2022/10/17 00:24:18;;;;;;;4.70;3.70;;;18.20;51.10;;;;;;5092710;28;20179;-42
2022/10/17 00:26:43;;;;;;;4.90;4.33;;;18.10;51.00;;;;;;5091860;28;20179;-43
2022/10/17 00:29:09;;;;;;;4.50;3.87;;;18.10;50.90;;;;;;5092323;28;20178;-43
2022/10/17 00:31:35;;;;;;;5.83;4.07;;;18.10;50.80;;;;;;5092233;28;20192;-42
2022/10/17 00:34:00;;;;;;;9.10;4.70;;;18.10;50.80;;;;;;5092266;28;20650;-42
2022/10/17 00:36:26;;;;;;;5.57;4.57;;;18.10;50.90;;;;;;5091621;28;20168;-43
2022/10/17 00:38:57;;;;;;;4.63;3.60;;;18.10;50.80;;;;;;5092282;28;20164;-42
2022/10/17 00:41:27;;;;;;;5.57;4.22;;;18.10;50.60;;;;;;5091639;28;20215;-43
2022/10/17 00:43:58;;;;;;;4.95;3.63;;;18.00;50.60;;;;;;5092212;28;20172;-43
2022/10/17 00:46:28;;;;;;;5.70;5.15;;;17.90;50.60;;;;;;5091792;28;20275;-42
2022/10/17 00:48:55;;;;;;;5.22;4.72;;;17.90;50.70;;;;;;5092149;28;20172;-42
2022/10/17 00:51:35;;;;;;;6.60;4.60;;;17.90;50.70;;;;;;5091867;28;20192;-43
2022/10/17 00:54:02;;;;;;;6.55;5.07;;;17.90;50.60;;;;;;5092126;28;20160;-42
2022/10/17 00:56:29;;;;;;;7.40;4.57;;;17.80;50.50;;;;;;5091427;28;21026;-43
2022/10/17 00:58:55;;;;;;;5.70;4.68;;;17.80;50.50;;;;;;5092036;28;20172;-43
2022/10/17 01:01:21;;;;;;;4.45;4.05;;;17.70;50.40;;;;;;5091948;28;20252;-43
2022/10/17 01:03:47;;;;;;;4.40;3.70;;;17.60;50.60;;;;;;5092038;28;20180;-43
2022/10/17 01:06:12;;;;;;;5.33;4.27;;;17.60;50.60;;;;;;5091423;28;20164;-40
2022/10/17 01:08:38;;;;;;;7.30;4.87;;;17.60;50.50;;;;;;5092035;28;20273;-41
2022/10/17 01:11:23;;;;;;;7.80;4.63;;;17.60;50.40;;;;;;5091825;28;20716;-42
2022/10/17 01:14:05;;;;;;;7.57;5.57;;;17.60;50.30;;;;;;5092007;28;20406;-42
2022/10/17 01:16:38;;;;;;;6.90;4.60;;;17.50;50.50;;;;;;5091418;28;20258;-42
2022/10/17 01:19:42;;;;;;;4.88;3.42;;;17.40;50.60;;;;;;5092140;28;20168;-42
2022/10/17 01:22:21;;;;;;;4.53;3.95;;;17.40;50.50;;;;;;5050212;28;20215;-43
2022/10/17 01:25:02;;;;;;;6.28;4.63;;;17.40;50.60;;;;;;5091823;28;20168;-42
2022/10/17 01:27:28;;;;;;;5.28;4.65;;;17.40;50.60;;;;;;5091215;28;20167;-42
2022/10/17 01:30:15;;;;;;;6.20;5.60;;;17.40;50.60;;;;;;5091750;28;20168;-42
2022/10/17 01:32:49;;;;;;;5.35;4.10;;;17.30;50.60;;;;;;5091646;28;20199;-42
2022/10/17 01:35:44;;;;;;;6.18;4.25;;;17.30;50.60;;;;;;5091756;28;20152;-42
2022/10/17 01:38:16;;;;;;;7.35;4.85;;;17.30;50.40;;;;;;5091768;28;20179;-42
2022/10/17 01:40:57;;;;;;;5.35;3.95;;;17.30;50.60;;;;;;5091599;28;20271;-42
2022/10/17 01:44:00;;;;;;;5.97;4.78;;;17.30;50.90;;;;;;5091923;28;20195;-43
2022/10/17 01:46:34;;;;;;;6.22;4.50;;;17.20;50.70;;;;;;5091140;28;20218;-42
2022/10/17 01:49:01;;;;;;;4.63;4.10;;;17.10;50.80;;;;;;5091550;28;20222;-42
2022/10/17 01:51:38;;;;;;;4.22;3.83;;;17.10;50.80;;;;;;5091473;28;20191;-40
2022/10/17 01:54:29;;;;;;;4.32;3.88;;;17.10;50.60;;;;;;5095235;28;20658;-42
2022/10/17 01:56:59;;;;;;;4.75;4.35;;;17.10;50.40;;;;;;5093976;28;20176;-43
2022/10/17 01:59:36;;;;;;;7.10;4.30;;;17.10;50.30;;;;;;5095209;28;20167;-42
2022/10/17 02:02:02;;;;;;;6.28;4.70;;;17.00;50.20;;;;;;5095047;28;20210;-42
2022/10/17 02:04:28;;;;;;;4.77;4.27;;;17.00;50.10;;;;;;5095045;28;20172;-42
2022/10/17 02:06:54;;;;;;;6.25;5.22;;;16.90;50.20;;;;;;5094439;28;20406;-40
2022/10/17 02:09:22;;;;;;;8.30;4.03;;;16.90;51.00;;;;;;5095194;28;20183;-42
2022/10/17 02:12:20;;;;;;;4.65;4.13;;;16.90;50.60;;;;;;5094737;28;20200;-42
2022/10/17 02:15:12;;;;;;;7.20;5.30;;;16.90;50.60;;;;;;5094986;28;20170;-43
2022/10/17 02:17:56;;;;;;;7.97;6.82;;;16.90;50.70;;;;;;5094244;28;20168;-42
2022/10/17 02:20:35;;;;;;;5.20;4.63;;;16.90;51.00;;;;;;5094890;28;20279;-42
2022/10/17 02:23:25;;;;;;;9.63;7.10;;;16.90;51.40;;;;;;5094722;28;20639;-42
2022/10/17 02:26:08;;;;;;;7.97;5.75;;;16.90;51.90;;;;;;5094101;28;20179;-42
2022/10/17 02:29:06;;;;;;;5.97;5.22;;;17.00;52.00;;;;;;5094782;28;20577;-42
2022/10/17 02:31:40;;;;;;;7.85;5.35;;;17.00;51.60;;;;;;5080047;28;20235;-41
2022/10/17 02:34:13;;;;;;;6.72;5.07;;;17.00;51.40;;;;;;5094880;28;20259;-42
2022/10/17 02:36:54;;;;;;;5.93;5.32;;;16.90;51.40;;;;;;5094216;28;20166;-42
2022/10/17 02:39:22;;;;;;;7.13;5.15;;;16.90;51.30;;;;;;5094606;28;20171;-42
2022/10/17 02:41:50;;;;;;;7.32;5.97;;;16.90;51.10;;;;;;5094330;28;20215;-42
2022/10/17 02:44:16;;;;;;;7.43;5.78;;;16.90;50.90;;;;;;5094342;28;20865;-42
2022/10/17 02:46:47;;;;;;;8.52;6.25;;;16.90;50.90;;;;;;5093776;28;20180;-42
2022/10/17 02:49:31;;;;;;;7.70;5.82;;;16.90;50.90;;;;;;5094468;28;20176;-42
2022/10/17 02:52:07;;;;;;;6.47;5.60;;;16.90;50.80;;;;;;5094034;28;20536;-42
2022/10/17 02:54:44;;;;;;;5.07;4.57;;;16.80;50.60;;;;;;5094165;28;20168;-42
2022/10/17 02:57:27;;;;;;;8.70;4.75;;;16.80;50.70;;;;;;5093556;28;20657;-42
2022/10/17 02:59:55;;;;;;;5.20;4.68;;;16.70;50.80;;;;;;5094062;28;20258;-42
2022/10/17 03:02:21;;;;;;;8.18;5.55;;;16.70;50.80;;;;;;5094262;28;20176;-42
2022/10/17 03:04:47;;;;;;;8.23;5.63;;;16.60;50.80;;;;;;5093325;28;20176;-42
2022/10/17 03:07:12;;;;;;;10.00;6.73;;;16.60;50.80;;;;;;5093423;28;20168;-42
2022/10/17 03:09:38;;;;;;;6.27;4.97;;;16.60;50.80;;;;;;5093778;28;20176;-42
2022/10/17 03:12:04;;;;;;;10.90;5.57;;;16.60;50.70;;;;;;5093688;28;20606;-42
2022/10/17 03:14:30;;;;;;;9.75;5.50;;;16.70;50.60;;;;;;5094028;28;20171;-42
2022/10/17 03:16:56;;;;;;;8.60;6.30;;;16.60;50.50;;;;;;5093356;28;20176;-43
2022/10/17 03:19:22;;;;;;;6.33;5.70;;;16.60;50.60;;;;;;5093618;28;20635;-42
2022/10/17 03:21:47;;;;;;;8.03;5.37;;;16.60;50.60;;;;;;5093522;28;20184;-43
2022/10/17 03:24:13;;;;;;;17.43;7.03;;;16.60;50.60;;;;;;5093541;28;20754;-42
2022/10/17 03:26:39;;;;;;;9.37;6.90;;;16.50;51.00;;;;;;5093168;28;20172;-42
2022/10/17 03:29:04;;;;;;;9.00;6.67;;;16.50;51.00;;;;;;5093493;28;20175;-42
2022/10/17 03:31:30;;;;;;;11.03;6.47;;;16.50;51.10;;;;;;5093519;28;20275;-43
2022/10/17 03:33:57;;;;;;;10.77;6.83;;;16.50;51.00;;;;;;5093724;28;20505;-42
2022/10/17 03:36:23;;;;;;;9.20;7.05;;;16.50;51.00;;;;;;5092711;28;20409;-42
2022/10/17 03:38:53;;;;;;;8.10;5.53;;;16.50;51.00;;;;;;5093279;28;20172;-43
2022/10/17 03:41:19;;;;;;;9.50;6.70;;;16.50;50.90;;;;;;5093449;28;20203;-42
2022/10/17 03:43:44;;;;;;;12.83;7.10;;;16.40;50.60;;;;;;5093458;28;20550;-42
2022/10/17 03:46:10;;;;;;;9.10;6.77;;;16.50;50.90;;;;;;5092511;28;20173;-42
2022/10/17 03:48:36;;;;;;;10.67;7.93;;;16.50;50.80;;;;;;5093135;28;20172;-42
2022/10/17 03:51:05;;;;;;;14.50;7.67;;;16.40;50.60;;;;;;5092939;28;20196;-42
2022/10/17 03:53:31;;;;;;;9.95;6.40;;;16.40;51.40;;;;;;5092816;28;20196;-42
2022/10/17 03:56:11;;;;;;;9.73;6.37;;;16.40;50.70;;;;;;5092711;28;20645;-43
2022/10/17 03:58:37;;;;;;;11.30;8.82;;;16.40;50.70;;;;;;5093258;28;20390;-42
2022/10/17 04:01:05;;;;;;;14.37;7.80;;;16.40;50.80;;;;;;5092730;28;20211;-42
2022/10/17 04:03:31;;;;;;;14.68;9.40;;;16.40;50.90;;;;;;5093362;28;20569;-42
2022/10/17 04:06:00;;;;;;;12.60;8.77;;;16.40;51.10;;;;;;5092288;28;20275;-43
2022/10/17 04:08:26;;;;;;;12.50;11.05;;;16.40;51.30;;;;;;5092837;28;20489;-43
2022/10/17 04:10:56;;;;;;;13.30;10.67;;;16.40;51.30;;;;;;5092823;28;20223;-42
2022/10/17 04:13:22;;;;;;;13.02;9.52;;;16.40;51.60;;;;;;5092757;28;20809;-43
2022/10/17 04:15:59;;;;;;;11.67;9.57;;;16.40;51.30;;;;;;5091250;28;20171;-42
2022/10/17 04:18:25;;;;;;;17.30;10.07;;;16.50;51.70;;;;;;5092841;28;20155;-42
2022/10/17 04:20:51;;;;;;;13.53;9.67;;;16.50;51.50;;;;;;5092451;28;20597;-43
2022/10/17 04:23:18;;;;;;;14.73;8.57;;;16.50;51.40;;;;;;5092542;28;20563;-42
2022/10/17 04:25:43;;;;;;;11.65;9.20;;;16.50;51.40;;;;;;5091946;28;20190;-42
2022/10/17 04:28:09;;;;;;;13.80;8.10;;;16.50;51.30;;;;;;5092645;28;20176;-42
2022/10/17 04:30:35;;;;;;;10.80;8.50;;;16.40;50.90;;;;;;5092562;28;20203;-42
2022/10/17 04:33:01;;;;;;;14.20;9.60;;;16.40;50.90;;;;;;5092146;28;20256;-42
2022/10/17 04:35:26;;;;;;;12.63;9.10;;;16.30;51.00;;;;;;5092172;28;20172;-43
2022/10/17 04:37:52;;;;;;;10.73;9.13;;;16.30;51.00;;;;;;5091821;28;20224;-42
2022/10/17 04:40:18;;;;;;;15.23;10.30;;;16.30;51.00;;;;;;5092251;28;20192;-43
2022/10/17 04:42:44;;;;;;;14.60;10.13;;;16.30;51.00;;;;;;5092354;28;20410;-43
2022/10/17 04:45:10;;;;;;;16.30;11.60;;;16.30;51.10;;;;;;5092151;28;20890;-42
2022/10/17 04:47:35;;;;;;;13.73;10.33;;;16.30;51.10;;;;;;5091695;28;20168;-43
2022/10/17 04:50:01;;;;;;;15.87;11.03;;;16.30;51.30;;;;;;5092107;28;20179;-42
2022/10/17 04:52:27;;;;;;;16.70;11.40;;;16.30;51.30;;;;;;5092124;28;20267;-42
2022/10/17 04:54:53;;;;;;;15.90;11.30;;;16.40;51.30;;;;;;5092100;28;20413;-42
2022/10/17 04:57:18;;;;;;;15.13;11.20;;;16.40;52.00;;;;;;5091852;28;20187;-42
2022/10/17 04:59:44;;;;;;;17.07;13.70;;;16.40;51.30;;;;;;5092141;28;20411;-43
2022/10/17 05:02:10;;;;;;;17.95;12.25;;;16.40;51.30;;;;;;5091945;28;20192;-42
2022/10/17 05:04:36;;;;;;;17.07;14.17;;;16.40;51.20;;;;;;5091947;28;20706;-42
2022/10/17 05:07:02;;;;;;;19.47;14.83;;;16.40;51.50;;;;;;5091565;28;20409;-42
2022/10/17 05:09:28;;;;;;;18.77;14.40;;;16.40;51.40;;;;;;5092077;28;20172;-43
2022/10/17 05:11:54;;;;;;;22.15;14.35;;;16.40;51.80;;;;;;5091765;28;20957;-42
2022/10/17 05:14:20;;;;;;;18.53;13.80;;;16.40;52.20;;;;;;5091912;28;20183;-42
2022/10/17 05:16:46;;;;;;;23.30;14.20;;;16.40;52.20;;;;;;5091222;28;20182;-43
2022/10/17 05:19:12;;;;;;;19.73;14.00;;;16.50;52.00;;;;;;5092096;28;20459;-43
2022/10/17 05:21:38;;;;;;;16.00;12.50;;;16.50;51.80;;;;;;5091737;28;20198;-42
2022/10/17 05:24:05;;;;;;;19.70;14.35;;;16.40;51.60;;;;;;5091859;28;20865;-43
2022/10/17 05:26:31;;;;;;;19.83;14.77;;;16.50;51.70;;;;;;5091277;28;20233;-43
2022/10/17 05:29:01;;;;;;;20.13;14.40;;;16.40;51.80;;;;;;5095419;28;20627;-42
2022/10/17 05:31:28;;;;;;;23.88;16.92;;;16.50;52.10;;;;;;5095905;28;20192;-42
2022/10/17 05:33:53;;;;;;;23.85;17.70;;;16.40;52.20;;;;;;5095565;28;20208;-42
2022/10/17 05:36:19;;;;;;;25.93;16.50;;;16.50;52.60;;;;;;5095203;28;20168;-42
2022/10/17 05:38:50;;;;;;;20.07;15.87;;;16.60;52.40;;;;;;5095691;28;20168;-42
2022/10/17 05:41:16;;;;;;;20.13;13.52;;;16.60;52.20;;;;;;5095778;28;20509;-42
2022/10/17 05:43:41;;;;;;;17.47;13.03;;;16.60;52.00;;;;;;5095541;28;20270;-42
2022/10/17 05:46:08;;;;;;;25.20;16.63;;;16.60;51.80;;;;;;5095195;28;20406;-42
2022/10/17 05:48:34;;;;;;;17.30;14.63;;;16.60;52.10;;;;;;5095728;28;20172;-42
2022/10/17 05:51:02;;;;;;;20.60;15.90;;;16.60;52.60;;;;;;5095295;28;20633;-43
2022/10/17 05:53:34;;;;;;;23.05;17.33;;;16.60;53.00;;;;;;5095264;28;20552;-42
2022/10/17 05:56:03;;;;;;;24.67;18.83;;;16.70;53.30;;;;;;5095066;28;20172;-42
2022/10/17 05:58:29;;;;;;;26.23;18.58;;;16.70;53.40;;;;;;5095296;28;20190;-43
2022/10/17 06:01:05;;;;;;;24.27;17.42;;;16.80;53.30;;;;;;5094920;28;20684;-43
2022/10/17 06:03:32;;;;;;;27.25;18.58;;;16.80;53.40;;;;;;5095149;28;20708;-43
2022/10/17 06:06:09;;;;;;;31.98;21.65;;;16.90;53.70;;;;;;5094599;28;20175;-43
2022/10/17 06:08:36;;;;;;;27.42;20.25;;;17.00;53.80;;;;;;5095047;28;20643;-43
2022/10/17 06:11:02;;;;;;;34.90;24.85;;;17.00;53.60;;;;;;5094870;28;20195;-43
2022/10/17 06:13:29;;;;;;;29.73;22.98;;;17.10;54.30;;;;;;5094910;28;20191;-43
2022/10/17 06:15:54;;;;;;;33.97;24.75;;;17.20;54.30;;;;;;5094374;28;20686;-42
2022/10/17 06:18:20;;;;;;;37.53;26.30;;;17.30;54.80;;;;;;5094943;28;20180;-43
2022/10/17 06:20:46;;;;;;;35.03;24.20;;;17.40;54.50;;;;;;5094709;28;20180;-42
2022/10/17 06:23:12;;;;;;;36.80;27.88;;;17.60;54.60;;;;;;5094728;28;20700;-43
2022/10/17 06:25:38;;;;;;;29.73;22.73;;;17.80;54.60;;;;;;5094105;28;20274;-43
2022/10/17 06:28:03;;;;;;;31.87;23.10;;;18.00;54.40;;;;;;5094772;28;20195;-43
2022/10/17 06:30:29;;;;;;;41.90;28.73;;;18.10;54.20;;;;;;5094552;28;20187;-43
2022/10/17 06:32:55;;;;;;;37.23;27.50;;;18.20;54.30;;;;;;5094699;28;20465;-43
2022/10/17 06:35:21;;;;;;;38.03;27.20;;;18.50;55.10;;;;;;5094411;28;20172;-43
2022/10/17 06:37:47;;;;;;;44.70;30.73;;;18.70;56.00;;;;;;5094012;28;20487;-43
2022/10/17 06:40:15;;;;;;;42.57;31.53;;;19.00;55.30;;;;;;5093286;28;20425;-42
2022/10/17 06:42:41;;;;;;;47.05;32.55;;;19.20;55.10;;;;;;5094336;28;20187;-42
2022/10/17 06:45:08;;;;;;;40.58;27.60;;;19.50;55.20;;;;;;5094516;28;20232;-42
2022/10/17 06:47:36;;;;;;;38.17;29.10;;;19.70;54.90;;;;;;5093615;28;20176;-43
2022/10/17 06:50:02;;;;;;;38.88;25.88;;;19.80;54.40;;;;;;5094085;28;20674;-43
2022/10/17 06:52:28;;;;;;;34.63;27.52;;;20.00;54.10;;;;;;5094067;28;20286;-43
2022/10/17 06:54:54;;;;;;;34.00;24.63;;;20.30;53.70;;;;;;5094045;28;20730;-44
2022/10/17 06:57:19;;;;;;;33.30;25.50;;;20.50;53.00;;;;;;5093651;28;20220;-43
2022/10/17 06:59:45;;;;;;;33.70;24.80;;;20.70;52.70;;;;;;5093972;28;20523;-42
2022/10/17 07:02:11;;;;;;;35.60;26.47;;;20.80;52.10;;;;;;5093894;28;20200;-42
2022/10/17 07:04:37;;;;;;;32.17;24.13;;;20.90;51.90;;;;;;5094212;28;20180;-43
2022/10/17 07:07:03;;;;;;;29.60;26.07;;;21.10;51.70;;;;;;5093457;28;20413;-43
2022/10/17 07:09:31;;;;;;;29.83;23.30;;;21.20;50.90;;;;;;5093753;28;20183;-43
2022/10/17 07:11:58;;;;;;;29.90;24.98;;;21.30;50.50;;;;;;5093745;28;20204;-42
2022/10/17 07:14:30;;;;;;;29.40;24.67;;;21.40;50.30;;;;;;5093894;28;20163;-42
2022/10/17 07:16:57;;;;;;;30.83;24.17;;;21.60;50.20;;;;;;5093187;28;20833;-42
2022/10/17 07:19:24;;;;;;;36.63;25.40;;;21.60;49.50;;;;;;5093973;28;20176;-43
2022/10/17 07:21:49;;;;;;;33.90;25.73;;;21.70;49.60;;;;;;5093606;28;20196;-42
2022/10/17 07:24:15;;;;;;;33.30;26.93;;;21.90;49.40;;;;;;5093610;28;20164;-43
2022/10/17 07:26:41;;;;;;;31.77;24.97;;;21.90;49.30;;;;;;5093174;28;20164;-44
2022/10/17 07:29:06;;;;;;;29.50;22.53;;;22.10;48.70;;;;;;5093539;28;20705;-44
2022/10/17 07:31:32;;;;;;;33.37;26.10;;;22.20;48.40;;;;;;5093723;28;20205;-42
2022/10/17 07:33:59;;;;;;;31.53;24.33;;;22.20;48.40;;;;;;5093633;28;20630;-42
2022/10/17 07:36:25;;;;;;;36.70;25.02;;;22.30;48.20;;;;;;5092687;28;20267;-43
2022/10/17 07:38:50;;;;;;;26.83;21.67;;;22.40;48.50;;;;;;5093297;28;20199;-42
2022/10/17 07:41:18;;;;;;;27.93;24.50;;;22.60;47.10;;;;;;5093405;28;20196;-42
2022/10/17 07:43:44;;;;;;;27.97;22.60;;;22.70;47.40;;;;;;5093313;28;20237;-43
2022/10/17 07:46:10;;;;;;;26.20;21.90;;;22.80;46.90;;;;;;5092803;28;20447;-44
2022/10/17 07:48:38;;;;;;;34.10;26.10;;;22.90;46.90;;;;;;5093116;28;20410;-43
2022/10/17 07:51:05;;;;;;;27.97;23.67;;;23.00;46.90;;;;;;5093014;28;20476;-43
2022/10/17 07:53:33;;;;;;;31.00;25.70;;;23.00;46.50;;;;;;5092866;28;20453;-44
2022/10/17 07:56:03;;;;;;;27.00;22.80;;;23.00;46.00;;;;;;5092296;28;20410;-43
2022/10/17 07:58:30;;;;;;;27.30;22.40;;;22.90;46.00;;;;;;5092909;28;20413;-42
2022/10/17 08:01:00;;;;;;;36.27;24.27;;;22.90;46.30;;;;;;5092633;28;20507;-43
2022/10/17 08:03:26;;;;;;;29.47;24.00;;;23.20;45.90;;;;;;5093081;28;20392;-43
2022/10/17 08:05:55;;;;;;;28.40;24.80;;;23.20;45.50;;;;;;5092407;28;20852;-43
2022/10/17 08:08:21;;;;;;;26.07;22.97;;;23.30;45.70;;;;;;5092766;28;20183;-43
2022/10/17 08:10:46;;;;;;;26.13;23.00;;;23.30;45.30;;;;;;5092578;28;20426;-44
2022/10/17 08:13:12;;;;;;;28.77;23.73;;;23.40;45.40;;;;;;5092795;28;20203;-43
2022/10/17 08:15:38;;;;;;;25.63;21.87;;;23.40;44.90;;;;;;5092174;28;20574;-42
2022/10/17 08:18:04;;;;;;;26.13;21.67;;;23.40;45.00;;;;;;5092620;28;20218;-44
2022/10/17 08:20:29;;;;;;;30.80;24.13;;;23.40;44.40;;;;;;5092583;28;20670;-42
2022/10/17 08:22:55;;;;;;;28.60;22.43;;;23.30;44.60;;;;;;5092538;28;20186;-42
2022/10/17 08:25:22;;;;;;;27.17;23.13;;;23.30;45.30;;;;;;5092528;28;20176;-42
2022/10/17 08:27:48;;;;;;;29.53;22.87;;;23.20;45.00;;;;;;5091983;28;20490;-43
2022/10/17 08:30:14;;;;;;;25.53;21.53;;;23.10;45.60;;;;;;5092464;28;20913;-43
2022/10/17 08:32:40;;;;;;;27.10;23.53;;;23.20;45.50;;;;;;5092266;28;20561;-42
2022/10/17 08:35:06;;;;;;;26.60;22.20;;;23.30;45.80;;;;;;5092470;28;20413;-42
2022/10/17 08:37:31;;;;;;;26.57;23.30;;;23.50;44.90;;;;;;5091987;28;20413;-42
2022/10/17 08:39:57;;;;;;;23.97;21.27;;;23.70;45.00;;;;;;5092180;28;20417;-42
2022/10/17 08:42:23;;;;;;;26.87;22.60;;;23.90;44.20;;;;;;5092242;28;20168;-43
2022/10/17 08:45:20;;;;;;;25.00;21.23;;;24.10;44.00;;;;;;5092530;28;20677;-43
2022/10/17 08:47:59;;;;;;;31.93;21.73;;;24.30;43.50;;;;;;5091864;28;20249;-42
2022/10/17 08:50:37;;;;;;;26.03;21.50;;;24.40;42.70;;;;;;5092248;28;20425;-43
2022/10/17 08:53:11;;;;;;;25.10;21.50;;;24.50;42.30;;;;;;5092446;28;20500;-43
2022/10/17 08:55:40;;;;;;;25.70;22.13;;;24.50;42.60;;;;;;5092275;28;20396;-44
2022/10/17 08:58:26;;;;;;;27.90;23.50;;;24.40;41.70;;;;;;5093117;28;20448;-42
2022/10/17 09:01:09;;;;;;;26.63;21.90;;;24.40;42.60;;;;;;5093496;28;20450;-43
2022/10/17 09:03:50;;;;;;;24.40;21.57;;;24.40;43.00;;;;;;5096665;28;20413;-44
2022/10/17 09:06:24;;;;;;;29.87;23.77;;;24.30;42.60;;;;;;5096634;28;20421;-43
2022/10/17 09:09:12;;;;;;;24.17;20.63;;;24.10;42.70;;;;;;5097405;28;20408;-45
2022/10/17 09:12:09;;;;;;;26.67;23.73;;;24.10;42.80;;;;;;5097164;28;20780;-44
2022/10/17 09:14:53;;;;;;;29.27;23.30;;;24.00;42.90;;;;;;5096176;28;20464;-42
2022/10/17 09:17:34;;;;;;;26.10;22.07;;;23.90;43.50;;;;;;5095414;28;20394;-43
2022/10/17 09:20:15;;;;;;;26.97;21.30;;;23.90;43.70;;;;;;5095858;28;20408;-45
2022/10/17 09:22:58;;;;;;;28.27;23.17;;;23.70;43.40;;;;;;5096113;28;20394;-41
2022/10/17 09:25:26;;;;;;;24.00;21.20;;;23.80;43.90;;;;;;5095874;28;20563;-42
2022/10/17 09:28:09;;;;;;;25.90;22.70;;;23.80;43.20;;;;;;5095343;28;20405;-44
2022/10/17 09:30:42;;;;;;;28.80;23.30;;;23.80;43.40;;;;;;5095809;28;20785;-44
2022/10/17 09:33:19;;;;;;;28.77;24.30;;;23.80;43.20;;;;;;5095612;28;20453;-44
2022/10/17 09:35:46;;;;;;;25.27;21.90;;;23.80;43.20;;;;;;5095278;28;20425;-42
2022/10/17 09:38:21;;;;;;;24.60;21.40;;;23.70;43.70;;;;;;5095736;28;20410;-42
2022/10/17 09:41:12;;;;;;;26.97;24.10;;;23.80;43.90;;;;;;5095804;28;20429;-44
2022/10/17 09:43:39;;;;;;;31.03;24.17;;;23.90;43.60;;;;;;5095720;28;20404;-42
2022/10/17 09:46:12;;;;;;;25.97;22.37;;;24.10;43.70;;;;;;5094912;28;20794;-43
2022/10/17 09:48:59;;;;;;;29.17;22.57;;;24.20;43.10;;;;;;5095378;28;20924;-44
2022/10/17 09:51:25;;;;;;;31.93;22.10;;;24.30;42.20;;;;;;5095210;28;20444;-42
2022/10/17 09:54:08;;;;;;;28.67;24.27;;;24.40;42.30;;;;;;5076825;28;20480;-44
2022/10/17 09:57:01;;;;;;;25.00;22.30;;;24.50;42.60;;;;;;5094962;28;20409;-43
2022/10/17 09:59:36;;;;;;;25.87;21.23;;;24.70;42.40;;;;;;5095142;28;20391;-44
2022/10/17 10:02:15;;;;;;;26.93;23.17;;;24.80;42.80;;;;;;5094978;28;20793;-43
2022/10/17 10:04:58;;;;;;;25.27;20.90;;;24.90;41.40;;;;;;5095340;28;20413;-43
2022/10/17 10:07:27;;;;;;;26.37;22.37;;;24.80;40.70;;;;;;5094461;28;20405;-43
2022/10/17 10:09:53;;;;;;;28.47;22.60;;;24.70;41.50;;;;;;5095113;28;20484;-44
2022/10/17 10:12:28;;;;;;;24.73;22.03;;;24.80;42.00;;;;;;5095197;28;20465;-43
2022/10/17 10:14:54;;;;;;;21.80;19.60;;;24.90;41.80;;;;;;5093808;28;20386;-43
2022/10/17 10:17:34;;;;;;;24.10;20.57;;;24.90;42.00;;;;;;5094213;28;20410;-42
2022/10/17 10:20:00;;;;;;;24.73;21.40;;;24.90;40.60;;;;;;5094860;28;20890;-43
2022/10/17 10:22:26;;;;;;;26.80;23.17;;;25.00;41.00;;;;;;5095082;28;20425;-44
2022/10/17 10:25:10;;;;;;;27.10;21.03;;;25.00;40.50;;;;;;5093312;28;20901;-44
2022/10/17 10:27:38;;;;;;;26.40;21.30;;;25.10;40.80;;;;;;5094419;28;20179;-43
2022/10/17 10:30:05;;;;;;;24.13;21.53;;;25.20;40.00;;;;;;5094639;28;20762;-44
2022/10/17 10:32:34;;;;;;;30.50;20.23;;;25.30;40.60;;;;;;5094540;28;20528;-43
2022/10/17 10:35:17;;;;;;;23.70;20.90;;;25.30;39.70;;;;;;5094514;28;20807;-44
2022/10/17 10:37:48;;;;;;;24.90;20.37;;;25.40;39.80;;;;;;5093890;28;20383;-44
2022/10/17 10:40:22;;;;;;;21.20;18.07;;;25.50;39.60;;;;;;5094218;28;20465;-44
2022/10/17 10:42:51;;;;;;;24.20;21.10;;;25.40;39.40;;;;;;5094595;28;20433;-44
2022/10/17 10:45:19;;;;;;;21.90;19.47;;;25.40;39.30;;;;;;5094384;28;20893;-43
2022/10/17 10:47:59;;;;;;;24.47;19.63;;;25.50;40.00;;;;;;5093815;28;20402;-42
2022/10/17 10:50:47;;;;;;;22.00;19.20;;;25.70;39.90;;;;;;5094393;28;20425;-42
2022/10/17 10:53:22;;;;;;;22.03;19.57;;;25.90;40.00;;;;;;5094200;28;20536;-43
2022/10/17 10:56:13;;;;;;;21.80;18.40;;;26.00;39.50;;;;;;5093885;28;20385;-44
2022/10/17 10:58:52;;;;;;;21.73;19.33;;;26.10;39.50;;;;;;5094263;28;20417;-43
2022/10/17 11:01:42;;;;;;;26.07;21.63;;;26.10;38.00;;;;;;5093814;28;20902;-44
2022/10/17 11:04:30;;;;;;;20.13;18.03;;;26.20;37.80;;;;;;5093983;28;20430;-43
2022/10/17 11:07:29;;;;;;;21.00;18.87;;;26.10;38.30;;;;;;5093166;28;20406;-42
2022/10/17 11:10:32;;;;;;;19.30;17.30;;;26.40;38.10;;;;;;5093641;28;20398;-44
2022/10/17 11:13:16;;;;;;;25.33;20.40;;;26.70;37.30;;;;;;5093795;28;20641;-44
2022/10/17 11:15:56;;;;;;;20.70;17.43;;;27.20;37.50;;;;;;5093204;28;20393;-42
2022/10/17 11:18:32;;;;;;;20.30;18.20;;;27.40;36.70;;;;;;5093716;28;20512;-43
2022/10/17 11:21:00;;;;;;;19.87;17.83;;;27.80;36.30;;;;;;5093554;28;20513;-42
2022/10/17 11:23:52;;;;;;;23.63;19.23;;;27.90;35.40;;;;;;5093521;28;20414;-44
2022/10/17 11:26:26;;;;;;;21.77;19.43;;;28.00;35.00;;;;;;5092732;28;20410;-42
2022/10/17 11:29:03;;;;;;;21.50;19.30;;;27.60;35.00;;;;;;5093475;28;20398;-42
2022/10/17 11:31:36;;;;;;;20.80;18.60;;;27.40;36.70;;;;;;5092971;28;20436;-43
2022/10/17 11:34:24;;;;;;;23.57;18.97;;;27.30;36.50;;;;;;5093300;28;20544;-43
2022/10/17 11:36:58;;;;;;;21.10;19.00;;;27.00;36.20;;;;;;5092818;28;20406;-42
2022/10/17 11:39:49;;;;;;;20.77;18.53;;;26.90;37.20;;;;;;5093316;28;20386;-44
2022/10/17 11:42:25;;;;;;;19.07;16.37;;;27.10;38.00;;;;;;5093385;28;20434;-44
2022/10/17 11:44:56;;;;;;;19.13;17.13;;;27.30;37.20;;;;;;5093141;28;20409;-43
2022/10/17 11:47:31;;;;;;;19.67;17.67;;;27.80;35.50;;;;;;5092557;28;20425;-43
2022/10/17 11:50:06;;;;;;;19.50;17.17;;;28.40;35.20;;;;;;5092919;28;20964;-44
2022/10/17 11:52:42;;;;;;;18.50;16.60;;;29.00;34.50;;;;;;5093073;28;20441;-43
2022/10/17 11:55:19;;;;;;;19.77;17.50;;;29.50;33.60;;;;;;5093217;28;20750;-43
2022/10/17 11:58:09;;;;;;;19.07;17.10;;;30.20;33.60;;;;;;5092680;28;20404;-42
2022/10/17 12:00:57;;;;;;;18.33;15.83;;;30.60;32.30;;;;;;5092745;28;20441;-45
2022/10/17 12:03:25;;;;;;;18.57;16.60;;;30.80;31.80;;;;;;5092858;28;20405;-44
2022/10/17 12:06:28;;;;;;;18.20;16.30;;;30.90;31.20;;;;;;5092030;28;20406;-44
2022/10/17 12:09:00;;;;;;;20.97;18.70;;;30.90;31.20;;;;;;5092675;28;20414;-43
2022/10/17 12:11:52;;;;;;;16.90;15.20;;;30.50;32.50;;;;;;5092644;28;20774;-43
2022/10/17 12:14:35;;;;;;;15.43;13.83;;;30.30;31.30;;;;;;5092695;28;20403;-42
2022/10/17 12:17:03;;;;;;;17.20;15.40;;;30.10;33.30;;;;;;5092141;28;20489;-42
2022/10/17 12:19:34;;;;;;;16.40;14.70;;;29.90;32.80;;;;;;5092555;28;20957;-43
2022/10/17 12:22:00;;;;;;;16.67;14.90;;;29.80;33.30;;;;;;5092799;28;20500;-45
2022/10/17 12:24:52;;;;;;;17.00;15.23;;;29.70;33.20;;;;;;5092720;28;20473;-43
2022/10/17 12:27:37;;;;;;;16.43;14.70;;;29.90;33.00;;;;;;5092178;28;20511;-43
2022/10/17 12:30:12;;;;;;;16.97;15.27;;;30.30;33.00;;;;;;5092233;28;20754;-43
2022/10/17 12:32:53;;;;;;;19.47;15.53;;;30.70;32.80;;;;;;5092490;28;20514;-43
2022/10/17 12:35:21;;;;;;;17.00;15.27;;;31.20;31.90;;;;;;5092377;28;20424;-44
2022/10/17 12:37:47;;;;;;;17.27;15.57;;;31.40;32.30;;;;;;5090934;28;20402;-44
2022/10/17 12:40:34;;;;;;;17.07;15.37;;;31.50;31.20;;;;;;5092194;28;20813;-44
2022/10/17 12:43:26;;;;;;;17.53;15.80;;;31.40;30.40;;;;;;5092249;28;20267;-44
2022/10/17 12:45:54;;;;;;;17.00;15.20;;;31.30;30.90;;;;;;5091581;28;20409;-43
2022/10/17 12:48:38;;;;;;;18.13;16.30;;;31.00;30.70;;;;;;5092198;28;20497;-42
2022/10/17 12:51:17;;;;;;;16.67;15.07;;;30.90;31.10;;;;;;5091876;28;20512;-44
2022/10/17 12:53:48;;;;;;;20.70;15.90;;;30.90;31.20;;;;;;5092380;28;20480;-43
2022/10/17 12:56:17;;;;;;;18.43;16.50;;;30.70;30.80;;;;;;5091553;28;20413;-43
2022/10/17 12:58:49;;;;;;;17.43;15.73;;;30.70;31.30;;;;;;5091969;28;20404;-43